• Join FlightAware (Why Join?)
  • Login
  • US Flag 
12:42AM EST


 

Airport Tracker/Info


-or-


 

Live Flight TrackerFlight Track Log ✈ XOJ552 ✈ 20-Oct-2013 ✈ KPGA - KVNY

Flight Track Log - Related Links

Times and Time Zones

All times are in EDT time to prevent confusion due to time zone crossing. See the XOJ552 flight status page for this flight to view local times or setup timezone preferences in your user account.

Time Position Orientation Groundspeed Altitude Reporting Facility
EDT Latitude Longitude Course Direction KTS MPH feet Rate Location/Type
07:40PM 36.9572 -111.4583 238° Southwest 166 191 6,500  Level Los Angeles Center
07:41PM 36.9144 -111.5242 231° Southwest 294 338 11,000 3,960 Climbing Denver Center
07:42PM 36.8339 -111.5586 199° South 297 342 14,800 3,780 Climbing Denver Center
07:43PM 36.7539 -111.6350 217° Southwest 360 414 18,900 3,240 Climbing Denver Center
07:44PM 36.6684 -112.1879 222° Southwest  Level Estimated
07:44PM 36.6781 -111.7211 222° Southwest 364 419 21,500  Level Los Angeles Center
07:45PM 36.6250 -112.3107 238° Southwest  Level Estimated
07:45PM 36.5972 -111.8150 223° Southwest 391 450 22,000  Level Los Angeles Center
07:46PM 36.5103 -111.9131 222° Southwest 414 476 22,400 480 Climbing Los Angeles Center
07:47PM 36.3911 -112.0517 223° Southwest 417 480 23,200 1,500 Climbing Los Angeles Center
07:48PM 36.3411 -112.1794 244° Southwest 416 479 25,900 2,580 Climbing Los Angeles Center
07:49PM 36.2964 -112.3089 247° West 408 470 28,600 1,500 Climbing Los Angeles Center
07:51PM 36.2586 -112.4211 247° West 426 490 29,000 480 Climbing Los Angeles Center
07:52PM 36.1967 -112.5997 247° West 464 534 29,600 1,260 Climbing Los Angeles Center
07:53PM 36.1486 -112.7422 247° West 453 521 31,700 1,860 Climbing Los Angeles Center
07:54PM 36.0983 -112.8875 247° West 457 526 33,500 1,080 Climbing Los Angeles Center
07:55PM 36.0381 -113.0661 247° West 466 536 34,000 240 Climbing Los Angeles Center
07:56PM 35.9878 -113.2122 247° West 464 534 34,000  Level Los Angeles Center
07:57PM 35.9422 -113.3433 247° West 460 529 34,000  Level Los Angeles Center
07:58PM 35.8828 -113.5142 247° West 459 528 34,000  Level Los Angeles Center
07:59PM 35.8203 -113.6867 246° West 454 522 34,000  Level Los Angeles Center
08:00PM 35.7689 -113.8339 247° West 465 535 34,000  Level Los Angeles Center
08:01PM 35.7175 -113.9794 247° West 465 535 34,000  Level Los Angeles Center
08:02PM 35.6683 -114.1172 246° West 467 537 34,000  Level Los Angeles Center
08:03PM 35.6119 -114.2728 246° West 467 537 34,000  Level Los Angeles Center
08:04PM 35.5581 -114.4206 246° West 471 542 34,000  Level Los Angeles Center
08:05PM 35.4958 -114.5953 246° West 465 535 34,000  Level Los Angeles Center
08:06PM 35.4431 -114.7397 246° West 464 534 34,000  Level Los Angeles Center
08:07PM 35.3894 -114.8844 246° West 465 535 34,000  Level Los Angeles Center
08:08PM 35.3381 -115.0286 246° West 461 531 34,000 -60 Level Los Angeles Center
08:09PM 35.2844 -115.1736 246° West 464 534 33,900 -780 Descending Los Angeles Center
08:10PM 35.2306 -115.3172 245° Southwest 465 535 32,400 -1,620 Descending Los Angeles Center
08:11PM 35.1725 -115.4761 246° West 458 527 30,700 -1,200 Descending Los Angeles Center
08:12PM 35.1200 -115.6183 246° West 458 527 30,000 -360 Descending Los Angeles Center
08:14PM 35.0664 -115.7583 245° Southwest 456 525 30,000  Level Los Angeles Center
08:15PM 35.0125 -115.9003 245° Southwest 459 528 30,000 -1,140 Level Los Angeles Center
08:16PM 34.9486 -116.0669 245° Southwest 454 522 27,700 -2,280 Descending Los Angeles Center
08:17PM 34.8947 -116.2039 244° Southwest 450 518 25,400 -1,740 Descending Los Angeles Center
08:18PM 34.8453 -116.3386 246° West 443 510 24,200 -960 Descending Los Angeles Center
08:19PM 34.7969 -116.4664 245° Southwest 424 488 23,500 -780 Descending Los Angeles Center
08:20PM 34.7839 -116.6025 263° West 407 468 22,600 -900 Descending Los Angeles Center
08:21PM 34.7714 -116.7383 264° West 405 466 21,700 -900 Descending Los Angeles Center
08:22PM 34.7553 -116.8989 263° West 400 460 20,800 -960 Descending Los Angeles Center
08:23PM 34.7411 -117.0347 263° West 402 463 19,800 -1,080 Descending Los Angeles Center
08:24PM 34.7278 -117.1706 263° West 404 465 18,600 -1,200 Descending Los Angeles Center
08:25PM 34.7133 -117.3058 263° West 403 464 17,400 -1,260 Descending Los Angeles Center
08:26PM 34.6994 -117.4392 263° West 397 457 16,100 -1,200 Descending Los Angeles Center
08:27PM 34.6844 -117.5703 262° West 392 451 14,700 -1,320 Descending Los Angeles Center
08:28PM 34.6683 -117.7214 263° West 377 434 13,200 -1,320 Descending Los Angeles Center
08:29PM 34.6522 -117.8700 263° West 372 428 12,000 -600 Descending Los Angeles Center
08:30PM 34.6400 -117.9950 263° West 366 421 12,000 -60 Level Los Angeles Center
08:31PM 34.6214 -118.1106 259° West 362 417 11,900 -840 Descending Los Angeles Center
08:32PM 34.5972 -118.2222 255° West 316 364 10,300 -1,500 Descending Los Angeles Center
08:33PM 34.5767 -118.3131 255° West 284 327 8,800 -1,140 Descending Los Angeles Center
08:34PM 34.5561 -118.4061 255° West 285 328 8,000 -420 Descending Los Angeles Center
08:35PM 34.5206 -118.4794 240° Southwest 262 302 8,000 -540 Level Los Angeles Center
08:36PM 34.4614 -118.5061 200° South 228 262 6,900 -1,440 Descending Los Angeles Center
08:38PM 34.3914 -118.5089 182° South 209 241 5,100 -1,500 Descending Los Angeles Center
08:39PM 34.3422 -118.5042 175° South 187 215 3,900 -1,080 Descending Los Angeles Center
08:40PM 34.2961 -118.4997 175° South 175 201 2,900 -960 Descending Los Angeles Center
08:41PM 34.2561 -118.4969 177° South 158 182 1,900 -840 Descending Los Angeles Center
08:42PM 34.2189 -118.4928 175° South 143 165 1,200 -720 Descending Los Angeles Center
08:44PM 34.2098 -118.4900 180° South  Level Estimated
08:51PM 34.2098 -118.4900 180° South  Level Estimated